logo
Search for airport 
image banner adimage banner adimage banner ad
image banner ad

EGSE42 - Hunsdon

Located in , United Kingdom

ICAO - , IATA -

Data provided by Airmate  

General information

Coordinates: N51°48'28" E0°4'11"
Elevation is 254 feet MSL.
 
View others Airports in England

Operational data

Special qualification required
Current time UTC:
Current local time:
Weather at : EGSS - London Stansted ( 14 km )
METAR: EGSS 060050Z AUTO 32003KT 6000 NCD 00/M00 Q1045
TAF: TAF EGSS 062257Z 0700/0806 VRB03KT CAVOK BECMG 0700/0703 2000 BR MIFG PROB40 0702/0710 0300 FZFG VV/// BECMG 0709/0712 7000 NSW BECMG 0712/0714 CAVOK BECMG 0717/0720 7000 BECMG 0720/0723 3000 BR MIFG PROB40 0723/0806 0300 FZFG VV///
View NOTAMs / SUP AIP / TFR affecting this airport [VIEW]
Communications frequencies: [VIEW]

Runways:

RWY identifierQFULength (ft)Width (ft)SurfaceLDA (ft)
03137765GRASS
21137765GRASS
08147662GRASS
26147662GRASS
14114898GRASS
32114898GRASS

Airport contact information

Address: United Kingdom

Satellite view of EGSE42